createdAt,value
2023-04-27T00:03:27.176Z,5.00
2023-04-27T00:09:35.949Z,4.68
2023-04-27T00:15:44.259Z,4.63
2023-04-27T00:21:52.966Z,4.53
2023-04-27T00:28:02.065Z,4.30
2023-04-27T00:34:10.038Z,5.30
2023-04-27T00:40:18.970Z,4.82
2023-04-27T00:46:28.081Z,4.10
2023-04-27T00:52:38.088Z,4.15
2023-04-27T00:58:46.989Z,4.72
2023-04-27T01:04:57.293Z,4.45
2023-04-27T01:11:05.924Z,4.25
2023-04-27T01:17:14.936Z,3.90
2023-04-27T01:23:22.975Z,3.55
2023-04-27T01:29:31.028Z,3.55
2023-04-27T01:35:39.105Z,3.30
2023-04-27T01:41:47.931Z,3.05
2023-04-27T01:48:00.009Z,3.85
2023-04-27T01:54:08.959Z,3.75
2023-04-27T02:00:17.905Z,3.10
2023-04-27T02:06:25.956Z,3.08
2023-04-27T02:12:33.934Z,3.33
2023-04-27T02:18:42.986Z,3.65
2023-04-27T02:24:50.956Z,3.08
2023-04-27T02:30:59.065Z,3.70
2023-04-27T02:37:07.954Z,3.22
2023-04-27T02:43:16.105Z,3.30
2023-04-27T02:49:24.948Z,3.50
2023-04-27T02:55:33.939Z,4.18
2023-04-27T03:01:42.064Z,3.50
2023-04-27T03:07:49.949Z,3.15
2023-04-27T03:13:58.919Z,3.33
2023-04-27T03:20:06.929Z,3.70
2023-04-27T03:26:19.943Z,3.78
2023-04-27T03:32:28.955Z,4.00
2023-04-27T03:38:37.905Z,4.05
2023-04-27T03:44:45.983Z,3.83
2023-04-27T03:50:56.947Z,4.28
2023-04-27T03:57:05.012Z,3.70
2023-04-27T04:03:14.090Z,3.67
2023-04-27T04:09:23.906Z,3.67
2023-04-27T04:15:32.972Z,3.33
2023-04-27T04:21:40.900Z,3.75
2023-04-27T04:27:48.949Z,3.95
2023-04-27T04:34:03.909Z,3.25
2023-04-27T04:40:16.923Z,3.35
2023-04-27T04:46:26.229Z,3.50
2023-04-27T04:52:34.945Z,3.05
2023-04-27T04:58:42.932Z,2.85
2023-04-27T05:04:51.008Z,2.17
2023-04-27T05:10:59.924Z,2.20
2023-04-27T05:17:07.972Z,2.10
2023-04-27T05:23:15.915Z,2.03
2023-04-27T05:29:23.967Z,2.17
2023-04-27T05:35:31.896Z,2.58
2023-04-27T05:41:39.934Z,3.75
2023-04-27T05:47:49.031Z,1.83
2023-04-27T05:53:58.008Z,1.77
2023-04-27T06:00:06.933Z,2.35
2023-04-27T06:06:14.912Z,2.30
2023-04-27T06:12:29.881Z,1.88
2023-04-27T06:18:38.626Z,2.30
2023-04-27T06:24:46.966Z,2.33
2023-04-27T06:30:55.001Z,2.15
2023-04-27T06:37:02.921Z,3.38
2023-04-27T06:43:11.441Z,3.22
2023-04-27T06:49:19.980Z,2.40
2023-04-27T06:55:28.074Z,2.45
2023-04-27T07:01:36.012Z,2.92
2023-04-27T07:07:43.952Z,2.65
2023-04-27T07:13:53.014Z,2.40
2023-04-27T07:20:00.902Z,2.25
2023-04-27T07:26:08.968Z,1.50
2023-04-27T07:32:18.111Z,2.00
2023-04-27T07:38:26.924Z,1.63
2023-04-27T07:44:35.900Z,1.85
2023-04-27T07:50:43.965Z,2.30
2023-04-27T07:56:51.993Z,2.00
2023-04-27T08:03:01.215Z,2.50
2023-04-27T08:09:11.379Z,1.90
2023-04-27T08:15:19.957Z,1.90
2023-04-27T08:21:27.920Z,1.90
2023-04-27T08:27:35.943Z,1.70
2023-04-27T08:33:50.957Z,2.05
2023-04-27T08:39:58.932Z,1.60
2023-04-27T08:46:07.058Z,1.67
2023-04-27T08:52:22.924Z,1.80
2023-04-27T08:58:43.934Z,1.90
2023-04-27T09:04:52.977Z,2.63
2023-04-27T09:11:07.931Z,1.95
2023-04-27T09:17:16.979Z,1.98
2023-04-27T09:23:36.963Z,2.00
2023-04-27T09:29:45.953Z,1.80
2023-04-27T09:35:54.956Z,2.15
2023-04-27T09:42:03.927Z,1.67
2023-04-27T09:48:15.938Z,2.35
2023-04-27T09:54:24.977Z,1.85
2023-04-27T10:00:39.965Z,2.30
2023-04-27T10:07:08.960Z,1.73
2023-04-27T10:13:28.986Z,2.05
2023-04-27T10:19:36.963Z,2.63
2023-04-27T10:25:46.950Z,2.20
2023-04-27T10:31:55.959Z,2.20
2023-04-27T10:38:14.963Z,2.42
2023-04-27T10:44:24.945Z,2.72
2023-04-27T10:50:33.934Z,2.70
2023-04-27T10:56:41.948Z,1.98
2023-04-27T11:02:50.080Z,2.08
2023-04-27T11:08:58.987Z,2.50
2023-04-27T11:15:06.925Z,3.03
2023-04-27T11:21:17.945Z,2.30
2023-04-27T11:27:29.002Z,2.00
2023-04-27T11:33:44.364Z,1.98
2023-04-27T11:39:52.918Z,2.00
2023-04-27T11:46:02.975Z,2.10
2023-04-27T11:52:11.906Z,2.30
2023-04-27T11:58:21.965Z,2.30
2023-04-27T12:04:30.096Z,2.70
2023-04-27T12:10:38.951Z,2.38
2023-04-27T12:16:47.995Z,2.40
2023-04-27T12:22:57.006Z,2.15
2023-04-27T12:29:05.017Z,2.47
2023-04-27T12:35:20.963Z,2.50
2023-04-27T12:41:30.045Z,2.25
2023-04-27T12:47:58.308Z,2.05
2023-04-27T12:54:13.225Z,2.25
2023-04-27T13:00:21.979Z,2.60
2023-04-27T13:06:32.151Z,2.28
2023-04-27T13:12:41.000Z,2.17
2023-04-27T13:18:55.954Z,2.50
2023-04-27T13:25:20.958Z,2.60
2023-04-27T13:31:35.981Z,2.40
2023-04-27T13:37:45.049Z,2.10
2023-04-27T13:43:53.022Z,2.10
2023-04-27T13:50:00.945Z,2.47
2023-04-27T13:56:08.996Z,2.42
2023-04-27T14:02:16.973Z,2.10
2023-04-27T14:08:25.960Z,2.83
2023-04-27T14:14:33.951Z,2.58
2023-04-27T14:20:44.046Z,2.53
2023-04-27T14:26:53.949Z,2.10
2023-04-27T14:33:02.029Z,2.72
2023-04-27T14:39:13.062Z,2.75
2023-04-27T14:45:24.390Z,2.50
2023-04-27T14:51:32.926Z,2.42
2023-04-27T14:57:41.964Z,2.47
2023-04-27T15:03:50.153Z,2.80
2023-04-27T15:09:59.018Z,2.67
2023-04-27T15:16:08.073Z,2.42
2023-04-27T15:22:15.959Z,2.50
2023-04-27T15:28:24.966Z,2.60
2023-04-27T15:34:39.940Z,2.20
2023-04-27T15:40:47.977Z,2.63
2023-04-27T15:46:56.146Z,2.20
2023-04-27T15:53:04.972Z,2.42
2023-04-27T15:59:15.187Z,2.30
2023-04-27T16:05:23.998Z,2.38
2023-04-27T16:11:31.976Z,2.45
2023-04-27T16:17:48.975Z,2.80
2023-04-27T16:23:57.973Z,2.33
2023-04-27T16:30:05.957Z,2.63
2023-04-27T16:36:20.942Z,2.22
2023-04-27T16:42:29.034Z,2.60
2023-04-27T16:48:36.987Z,2.45
2023-04-27T16:54:45.230Z,2.22
2023-04-27T17:00:54.108Z,2.55
2023-04-27T17:07:01.945Z,2.40
2023-04-27T17:13:11.999Z,2.33
2023-04-27T17:19:20.980Z,2.17
2023-04-27T17:25:28.992Z,2.17
2023-04-27T17:31:37.120Z,1.70
2023-04-27T17:37:45.990Z,2.72
2023-04-27T17:43:54.992Z,2.22
2023-04-27T17:50:03.077Z,1.98
2023-04-27T17:56:12.087Z,2.10
2023-04-27T18:02:20.034Z,2.30
2023-04-27T18:08:28.015Z,2.20
2023-04-27T18:14:35.961Z,2.15
2023-04-27T18:20:43.955Z,2.22
2023-04-27T18:26:51.977Z,2.15
2023-04-27T18:33:06.992Z,2.60
2023-04-27T18:39:15.455Z,2.53
2023-04-27T18:45:24.013Z,2.70
2023-04-27T18:51:39.028Z,2.30
2023-04-27T18:57:48.134Z,2.15
2023-04-27T19:03:57.071Z,2.20
2023-04-27T19:10:05.956Z,2.30
2023-04-27T19:16:14.974Z,2.78
2023-04-27T19:22:22.943Z,1.98
2023-04-27T19:28:30.954Z,1.92
2023-04-27T19:34:45.965Z,2.28
2023-04-27T19:40:54.935Z,2.15
2023-04-27T19:47:03.107Z,2.53
2023-04-27T19:53:10.963Z,2.35
2023-04-27T19:59:19.954Z,2.40
2023-04-27T20:05:29.124Z,2.30
2023-04-27T20:11:38.011Z,2.58
2023-04-27T20:17:46.014Z,2.50
2023-04-27T20:23:54.985Z,2.50
2023-04-27T20:30:02.981Z,2.30
2023-04-27T20:36:18.413Z,2.40
2023-04-27T20:42:27.091Z,2.22
2023-04-27T20:48:36.060Z,2.40
2023-04-27T20:54:45.023Z,2.55
2023-04-27T21:00:53.081Z,2.63
2023-04-27T21:07:01.315Z,2.72
2023-04-27T21:13:11.048Z,2.40
2023-04-27T21:19:22.020Z,2.20
2023-04-27T21:25:31.236Z,2.80
2023-04-27T21:31:47.005Z,2.30
2023-04-27T21:37:54.993Z,2.60
2023-04-27T21:44:03.076Z,2.10
2023-04-27T21:50:12.058Z,2.40
2023-04-27T21:56:20.009Z,2.40
2023-04-27T22:02:29.095Z,2.65
2023-04-27T22:08:38.021Z,2.30
2023-04-27T22:14:46.272Z,2.20
2023-04-27T22:20:56.003Z,2.70
2023-04-27T22:27:04.050Z,2.58
2023-04-27T22:33:18.958Z,2.20
2023-04-27T22:39:26.985Z,2.13
2023-04-27T22:45:36.150Z,2.45
2023-04-27T22:51:46.183Z,2.33
2023-04-27T22:57:56.949Z,2.58
2023-04-27T23:04:05.106Z,2.47
2023-04-27T23:10:14.010Z,2.20
2023-04-27T23:16:23.010Z,2.22
2023-04-27T23:22:31.984Z,2.40
2023-04-27T23:28:39.977Z,2.30
2023-04-27T23:34:54.959Z,2.30
2023-04-27T23:41:02.972Z,2.40
2023-04-27T23:47:12.013Z,2.58
2023-04-27T23:53:20.001Z,2.60
2023-04-27T23:59:27.988Z,2.30
